Aérodrome :
LOGIN :

S'inscrire | Disclaimer

   EN    FR    IT 

 










Légende :    VFR   VFR Marginal   IFR   IFR Intensif   IFR Très Intensif
Visi : 
Plafond : 
>= 8 km
>= 3000ft
5 à 8 km
1000 à 3000 ft
1500m à 5 km
500 à 1000 ft
800 à 1500m
200 à 500 ft
< 800m
< 200 ft
Symboles :   Orages  Brouillard  Fortes neiges  Fortes précipitations  Vent > 20 kt
SIGMETs :   Divers  Orages  Givrage  Turbulence  Onde Orograph.  Cendres Volcan.






- Altitude de l'aérodrome : -11 ft
- Code IATA : AMS


EHAM - Amsterdam Schiphol

DERNIER METAR :
  • 072225Z 09007KT CAVOK 12/06 Q1028 NOSIG

METARs EXPIRÉS :
  • 072155Z 08008KT CAVOK 11/06 Q1028 NOSIG
  • 072125Z 08006KT CAVOK 10/06 Q1028 NOSIG
  • 072055Z 06004KT CAVOK 11/07 Q1028 NOSIG
  • 072025Z 06005KT CAVOK 11/06 Q1029 NOSIG
  • 071955Z 06006KT CAVOK 11/06 Q1029 NOSIG

TAF TAF EHAM
Valide du 07 à 18h jusqu'au 09 à 00h UTC


071658Z 0718/0824 07007KT CAVOK
PROB30 0810/0818 31008KT



MET'MAP, la Météo Aéronautique d'un coup d'oeil ! - Copyright ORBIFLY Décembre 2007 - Disclaimer

ORBIFLY MET'MAP TEAM :

Programmation & Développement : Alexandra Zaïnal
Sur une idée originale de : Baudouin d'Aumeries
Assistance à la programmation : Marc-Olivier Méhu
Soutien technique & logistique : Manuel Goepfert

Contact : metmap@orbifly.com




SOURCES & CREDITS :

   NOAA